Altoona, Pennsylvania
Current Conditions -  °F | °C
As of 3:53 AM on Monday 20 Oct 2014 (Local Time) from KAOO Reporting Station
Clear Clear  
Wind Chill: 38°   Ceiling: Unl
Heat Index: 43°   Visibility: 10mi
Dew Point: 36°   Wind: 8mph
Humidity: 76%   Direction: 200°SSW
Pressure: 30.05"   Gusts: NA
Location:  40.51°N, 78.4°W
Report Text: KAOO 200753Z AUTO 20007KT 10SM CLR 06/02 A3005 RMK AO2 SLP179 T00610022
Loading
Personal Weather Stations






























Interactive Weather Map
Tropical Storm Tracking
New forecast layout! Learn more

10-Day Weather Forecast

Advertisements
Track Severe Weather on mobile